Buckley Air Force Base
KBKF : now visible

Airfield :











YOU CAN JOIN US ON...

 
LOGIN :

Register | Disclaimer

   EN    FR    IT 

 









Legend :    VFR   Marginal VFR   IFR   Intensive IFR   Very Intensive IFR
Visi :
Ceiling :
>= 8 km
>= 3000ft
5 to 8 km
1000 to 3000 ft
1500m to 5 km
500 to 1000 ft
800 to 1500m
200 to 500 ft
< 800m
< 200 ft
Symbols :   Thunderstorms  Fog  Heavy snow  Heavy precipitations  Wind > 20 kt






- Airport Elevation : 5662 ft


KBKF - Buckley Air Force Base

CURRENT METAR :
  • 282358Z 34005KT 10SM SCT220 14/M10 A3033 RMK AO2A SLP244 T01431097 10158 20128 55006

EXPIRED METARs :
  • 282258Z 35005KT 10SM FEW220 16/M09 A3033 RMK AO2A SLP239 T01581092
  • 282158Z 36004KT 10SM FEW220 15/M10 A3033 RMK AO2A SLP239 T01541096

TAF AMD TAF KBKF
Valid from the 28 at 09:00 until the 29 at 15:00 UTC


280938Z 2809/2915 VRB06KT 9999 FEW045 QNH3037INS
BECMG 2817/2818 33015G20KT 9999 SKC QNH3035INS
BECMG 2900/2901 VRB06KT 9999 SKC QNH3032INS TX14/2823Z TN03/2813Z
KZDV FIR / North America



MET'MAP, your aeronautical weather chart ! - Copyright ORBIFLY December 2007 - Disclaimer

ORBIFLY MET'MAP TEAM :

Programming & Development : Alexandra Zaïnal
Concept & original design : Baudouin d'Aumeries
Assistance for programming : Marc-Olivier Méhu
Technical & hardware support : Manuel Goepfert

Contact : metmap@orbifly.com




SOURCES & CREDITS :

   NOAA       Earth
Advisory